Time;durP1;ratioP1;P1;durP2;ratioP2;P2;SDS_P1;SDS_P2;PMS_P1;PMS_P2;Temp;Humidity;BMP_temperature;BMP_pressure;BME280_temperature;BME280_humidity;BME280_pressure;Samples;Min_cycle;Max_cycle;Signal;HPM_P1;HPM_P2
2021/08/23 04:01:26;;;;;;;6.43;5.27;;;17.60;99.90;;;;;;5545310;22;20536;-64
2021/08/23 04:03:53;;;;;;;6.30;5.70;;;17.60;99.90;;;;;;4997845;28;20449;-64
2021/08/23 04:06:20;;;;;;;5.63;5.13;;;17.60;99.90;;;;;;4997674;28;20458;-64
2021/08/23 04:08:46;;;;;;;6.07;5.33;;;17.60;99.90;;;;;;4997583;28;20453;-64
2021/08/23 04:11:14;;;;;;;6.90;4.90;;;17.60;99.90;;;;;;4997970;28;20841;-64
2021/08/23 04:13:41;;;;;;;6.17;5.30;;;17.50;99.90;;;;;;4997176;28;20481;-64
2021/08/23 04:16:11;;;;;;;8.00;6.10;;;17.50;99.90;;;;;;4997841;28;20454;-65
2021/08/23 04:18:39;;;;;;;5.57;5.07;;;17.50;99.90;;;;;;4998647;28;20454;-65
2021/08/23 04:21:06;;;;;;;6.13;5.27;;;17.50;99.90;;;;;;4996969;28;20481;-64
2021/08/23 04:23:33;;;;;;;8.57;5.40;;;17.40;99.90;;;;;;4997327;28;20457;-65
2021/08/23 04:26:00;;;;;;;5.60;5.10;;;17.50;99.90;;;;;;4997300;28;20465;-64
2021/08/23 04:28:27;;;;;;;6.90;5.50;;;17.50;99.90;;;;;;4997207;28;20458;-64
2021/08/23 04:30:54;;;;;;;7.63;5.43;;;17.50;99.90;;;;;;4997078;28;20485;-64
2021/08/23 04:33:22;;;;;;;6.50;5.90;;;17.40;99.90;;;;;;4996893;28;20940;-64
2021/08/23 04:35:50;;;;;;;6.70;6.10;;;17.50;99.90;;;;;;4996974;28;20564;-64
2021/08/23 04:38:16;;;;;;;18.07;6.53;;;17.40;99.90;;;;;;4997030;28;20504;-64
2021/08/23 04:40:43;;;;;;;5.97;5.47;;;17.40;99.90;;;;;;4996546;28;21013;-64
2021/08/23 04:43:10;;;;;;;9.03;5.80;;;17.40;99.90;;;;;;4996784;28;20964;-64
2021/08/23 04:45:36;;;;;;;6.43;5.77;;;17.40;99.90;;;;;;4997009;28;20454;-64
2021/08/23 04:48:03;;;;;;;6.00;5.50;;;17.40;99.90;;;;;;4997667;28;20457;-64
2021/08/23 04:50:30;;;;;;;6.87;6.07;;;17.40;99.90;;;;;;4997040;28;20477;-64
2021/08/23 04:52:58;;;;;;;6.07;5.60;;;17.40;99.90;;;;;;4996911;28;20465;-65
2021/08/23 04:55:25;;;;;;;5.70;5.20;;;17.40;99.90;;;;;;4996698;28;20485;-64
2021/08/23 04:57:53;;;;;;;11.07;5.10;;;17.40;99.90;;;;;;4996742;28;20457;-64
2021/08/23 05:00:20;;;;;;;5.40;4.67;;;17.40;99.90;;;;;;4996464;28;20467;-64
2021/08/23 05:02:46;;;;;;;5.77;5.27;;;17.40;99.90;;;;;;4996938;28;20442;-64
2021/08/23 05:05:13;;;;;;;6.47;5.83;;;17.30;99.90;;;;;;4996570;28;20457;-64
2021/08/23 05:07:40;;;;;;;7.27;5.20;;;17.30;99.90;;;;;;4996081;28;20453;-64
2021/08/23 05:10:09;;;;;;;5.57;4.90;;;17.30;99.90;;;;;;4996585;28;20515;-64
2021/08/23 05:12:36;;;;;;;4.97;4.53;;;17.30;99.90;;;;;;4997242;28;20460;-64
2021/08/23 05:15:03;;;;;;;8.30;5.10;;;17.30;99.90;;;;;;4996338;28;20485;-64
2021/08/23 05:17:29;;;;;;;7.33;4.77;;;17.30;99.90;;;;;;4996291;28;20457;-64
2021/08/23 05:19:56;;;;;;;6.93;4.53;;;17.30;99.90;;;;;;4996141;28;20491;-64
2021/08/23 05:22:24;;;;;;;5.17;4.67;;;17.30;99.90;;;;;;4996134;28;20477;-64
2021/08/23 05:24:51;;;;;;;4.80;4.40;;;17.30;99.90;;;;;;4995891;28;20449;-64
2021/08/23 05:27:19;;;;;;;6.20;5.60;;;17.30;99.90;;;;;;4995859;28;20458;-64
2021/08/23 05:29:46;;;;;;;5.37;4.53;;;17.30;99.90;;;;;;4996255;28;20453;-64
2021/08/23 05:32:16;;;;;;;6.20;5.00;;;17.30;99.90;;;;;;4996135;28;20473;-64
2021/08/23 05:34:44;;;;;;;5.23;4.73;;;17.30;99.90;;;;;;4996358;28;20488;-64
2021/08/23 05:37:11;;;;;;;5.50;5.00;;;17.30;99.90;;;;;;4996174;28;20449;-64
2021/08/23 05:39:38;;;;;;;9.13;4.80;;;17.40;99.90;;;;;;4995836;28;20454;-63
2021/08/23 05:42:04;;;;;;;4.77;4.37;;;17.40;99.90;;;;;;4995729;28;20531;-63
2021/08/23 05:44:32;;;;;;;7.60;5.00;;;17.40;99.90;;;;;;4995366;28;20484;-64
2021/08/23 05:46:59;;;;;;;4.57;4.20;;;17.50;99.90;;;;;;4996177;28;20454;-64
2021/08/23 05:49:26;;;;;;;5.70;5.20;;;17.50;99.90;;;;;;4996515;28;20449;-64
2021/08/23 05:51:52;;;;;;;4.27;3.97;;;17.50;99.90;;;;;;4995727;28;20469;-64
2021/08/23 05:54:19;;;;;;;4.27;3.97;;;17.50;99.90;;;;;;4995630;28;20466;-64
2021/08/23 05:56:46;;;;;;;4.97;4.47;;;17.50;99.90;;;;;;4995338;28;20978;-64
2021/08/23 05:59:12;;;;;;;5.47;4.40;;;17.50;99.90;;;;;;4995190;28;20458;-64
2021/08/23 06:01:40;;;;;;;5.40;4.47;;;17.60;99.90;;;;;;4995968;28;20489;-64
2021/08/23 06:04:07;;;;;;;5.70;5.10;;;17.60;99.90;;;;;;4995191;28;20955;-64
2021/08/23 06:06:34;;;;;;;5.93;5.07;;;17.70;99.90;;;;;;4995536;28;20457;-64
2021/08/23 06:09:00;;;;;;;6.97;4.90;;;17.70;99.90;;;;;;4995568;28;20461;-64
2021/08/23 06:11:27;;;;;;;7.13;5.17;;;17.70;99.90;;;;;;4995477;28;20875;-64
2021/08/23 06:13:54;;;;;;;6.70;4.90;;;17.80;99.90;;;;;;4995706;28;20504;-64
2021/08/23 06:16:21;;;;;;;5.83;5.27;;;17.80;99.90;;;;;;4995390;28;20508;-64
2021/08/23 06:18:49;;;;;;;5.80;4.80;;;17.90;99.90;;;;;;4995320;28;20484;-64
2021/08/23 06:21:15;;;;;;;6.20;5.13;;;17.90;99.90;;;;;;4994789;28;20998;-64
2021/08/23 06:23:42;;;;;;;5.47;4.97;;;18.00;99.90;;;;;;4995721;28;20860;-64
2021/08/23 06:26:09;;;;;;;5.27;4.87;;;18.10;99.90;;;;;;4995080;28;20450;-64
2021/08/23 06:28:35;;;;;;;4.70;4.17;;;18.10;99.90;;;;;;4995230;28;20458;-64
2021/08/23 06:31:02;;;;;;;9.83;5.30;;;18.20;99.90;;;;;;4995224;28;20536;-64
2021/08/23 06:33:29;;;;;;;4.97;4.60;;;18.10;99.90;;;;;;4995319;28;20460;-64
2021/08/23 06:35:57;;;;;;;5.60;4.93;;;18.10;99.90;;;;;;4995015;28;20988;-64
2021/08/23 06:38:23;;;;;;;5.73;5.13;;;18.10;99.90;;;;;;4995176;28;20453;-64
2021/08/23 06:40:50;;;;;;;5.67;5.17;;;18.10;99.90;;;;;;4995071;28;20987;-64
2021/08/23 06:43:17;;;;;;;7.20;5.60;;;18.00;99.90;;;;;;4995319;28;20453;-64
2021/08/23 06:45:43;;;;;;;5.40;5.00;;;18.00;99.90;;;;;;4998371;28;20449;-64
2021/08/23 06:48:10;;;;;;;8.53;5.70;;;18.00;99.90;;;;;;5008348;28;20454;-63
2021/08/23 06:50:37;;;;;;;5.97;5.50;;;18.00;99.90;;;;;;4995619;28;20980;-64
2021/08/23 06:53:06;;;;;;;5.77;5.17;;;17.90;99.90;;;;;;4995192;28;20457;-64
2021/08/23 06:55:33;;;;;;;5.37;5.00;;;18.00;99.90;;;;;;4997038;28;20478;-64
2021/08/23 06:58:00;;;;;;;5.30;4.80;;;18.00;99.90;;;;;;4998749;28;20897;-64
2021/08/23 07:00:27;;;;;;;9.73;4.90;;;18.10;99.90;;;;;;4998812;28;20811;-62
2021/08/23 07:02:54;;;;;;;5.43;4.93;;;18.10;99.90;;;;;;4999074;28;20442;-65
2021/08/23 07:05:22;;;;;;;5.23;4.83;;;18.10;99.90;;;;;;4998722;28;20457;-62
2021/08/23 07:07:48;;;;;;;5.33;4.83;;;18.20;99.90;;;;;;4998674;28;20827;-64
2021/08/23 07:10:16;;;;;;;6.37;5.77;;;18.30;99.90;;;;;;4998725;28;20461;-64
2021/08/23 07:12:44;;;;;;;5.17;4.60;;;18.40;99.90;;;;;;4998716;28;20460;-62
2021/08/23 07:15:11;;;;;;;5.63;4.10;;;18.60;99.90;;;;;;4998553;28;20481;-64
2021/08/23 07:17:38;;;;;;;5.53;4.20;;;18.80;99.90;;;;;;4998449;28;20466;-64
2021/08/23 07:20:06;;;;;;;6.43;4.40;;;19.00;99.90;;;;;;4998373;28;20460;-64
2021/08/23 07:22:33;;;;;;;10.53;5.00;;;19.10;99.90;;;;;;4998334;28;20832;-64
2021/08/23 07:25:00;;;;;;;5.87;4.10;;;19.30;99.90;;;;;;4998367;28;20460;-64
2021/08/23 07:27:29;;;;;;;4.90;4.30;;;19.50;99.90;;;;;;4998117;28;20953;-64
2021/08/23 07:29:55;;;;;;;5.30;4.47;;;19.60;99.90;;;;;;4998272;28;20460;-64
2021/08/23 07:32:22;;;;;;;5.90;4.70;;;19.50;99.90;;;;;;4998154;28;20481;-64
2021/08/23 07:34:49;;;;;;;5.40;4.90;;;19.40;99.90;;;;;;4998081;28;20478;-64
2021/08/23 07:37:15;;;;;;;6.10;4.27;;;19.40;99.90;;;;;;4998141;28;20458;-63
2021/08/23 07:39:43;;;;;;;5.60;5.20;;;19.40;99.90;;;;;;4998070;28;20458;-62
2021/08/23 07:42:10;;;;;;;5.87;5.27;;;19.30;99.90;;;;;;4998860;28;20481;-65
2021/08/23 07:44:38;;;;;;;5.47;5.07;;;19.30;99.90;;;;;;4998136;28;20457;-63
2021/08/23 07:47:05;;;;;;;5.10;4.70;;;19.30;99.90;;;;;;4998066;28;20453;-63
2021/08/23 07:49:32;;;;;;;5.77;5.27;;;19.20;99.90;;;;;;4997832;28;20454;-64
2021/08/23 07:51:59;;;;;;;5.10;4.60;;;19.10;99.90;;;;;;4997461;28;20480;-63
2021/08/23 07:54:26;;;;;;;6.70;4.27;;;19.20;99.90;;;;;;4997446;28;20944;-62
2021/08/23 07:56:53;;;;;;;5.00;4.60;;;19.20;99.90;;;;;;4997789;28;20553;-63
2021/08/23 07:59:20;;;;;;;6.87;5.70;;;19.20;99.90;;;;;;4997867;28;20461;-64
2021/08/23 08:01:48;;;;;;;4.63;4.33;;;19.20;99.90;;;;;;4997657;28;20491;-65
2021/08/23 08:04:15;;;;;;;5.13;4.63;;;19.30;99.90;;;;;;4997777;28;20453;-65
2021/08/23 08:06:44;;;;;;;6.97;5.63;;;19.30;99.90;;;;;;4996797;28;20449;-61
2021/08/23 08:09:10;;;;;;;5.03;4.60;;;19.30;99.90;;;;;;4997286;28;20465;-64
2021/08/23 08:11:37;;;;;;;4.93;4.47;;;19.40;99.90;;;;;;4997401;28;20833;-64
2021/08/23 08:14:04;;;;;;;5.70;4.13;;;19.50;99.90;;;;;;4997192;28;20791;-64
2021/08/23 08:16:31;;;;;;;5.27;4.77;;;19.60;99.90;;;;;;4997353;28;20524;-64
2021/08/23 08:18:59;;;;;;;5.83;4.60;;;19.60;99.90;;;;;;4997217;28;20458;-63
2021/08/23 08:21:26;;;;;;;5.17;4.60;;;19.60;99.90;;;;;;4997571;28;20504;-64
2021/08/23 08:23:54;;;;;;;6.03;4.50;;;19.60;99.90;;;;;;4997188;28;20521;-64
2021/08/23 08:26:21;;;;;;;4.97;4.57;;;19.60;99.90;;;;;;4997234;28;20458;-65
2021/08/23 08:28:47;;;;;;;7.27;5.10;;;19.60;99.90;;;;;;4996859;28;20458;-64
2021/08/23 08:31:14;;;;;;;7.27;4.63;;;19.70;99.90;;;;;;4997186;28;21035;-64
2021/08/23 08:33:41;;;;;;;6.27;4.87;;;19.80;99.90;;;;;;4996903;28;20453;-64
2021/08/23 08:36:09;;;;;;;5.17;4.67;;;19.80;99.90;;;;;;4997250;28;20462;-64
2021/08/23 08:38:36;;;;;;;6.87;4.77;;;19.90;99.90;;;;;;4997175;28;20453;-64
2021/08/23 08:41:03;;;;;;;5.33;4.90;;;20.20;99.90;;;;;;4997197;28;20808;-62
2021/08/23 08:43:30;;;;;;;6.50;4.90;;;20.30;99.90;;;;;;4997012;28;20493;-64
2021/08/23 08:45:57;;;;;;;5.93;5.17;;;20.30;99.90;;;;;;4997021;28;20454;-63
2021/08/23 08:48:24;;;;;;;6.03;5.00;;;20.50;99.90;;;;;;4997146;28;20457;-63
2021/08/23 08:50:52;;;;;;;6.37;5.63;;;20.60;99.90;;;;;;4997004;28;20485;-62
2021/08/23 08:53:21;;;;;;;5.40;5.00;;;20.70;99.90;;;;;;4996936;28;20995;-62
2021/08/23 08:55:47;;;;;;;5.87;4.10;;;20.90;99.90;;;;;;4996598;28;20485;-62
2021/08/23 08:58:14;;;;;;;4.83;3.17;;;21.10;99.90;;;;;;4996499;28;20453;-63
2021/08/23 09:00:42;;;;;;;4.03;3.63;;;21.20;99.90;;;;;;4996383;28;20908;-63
2021/08/23 09:03:10;;;;;;;7.40;4.03;;;21.50;99.90;;;;;;4996402;28;20460;-62
2021/08/23 09:05:38;;;;;;;3.90;3.20;;;21.70;99.90;;;;;;4996476;28;20449;-62
2021/08/23 09:08:06;;;;;;;4.47;4.03;;;21.80;99.90;;;;;;4996492;28;20453;-62
2021/08/23 09:10:39;;;;;;;4.77;4.07;;;21.90;99.90;;;;;;4996109;28;20977;-63
2021/08/23 09:13:07;;;;;;;4.30;3.90;;;22.00;99.90;;;;;;4996612;28;20446;-60
2021/08/23 09:15:35;;;;;;;4.60;4.20;;;21.70;99.90;;;;;;4996342;28;20473;-62
2021/08/23 09:18:03;;;;;;;4.60;4.00;;;21.70;99.90;;;;;;4996212;28;20479;-64
2021/08/23 09:20:30;;;;;;;4.10;3.70;;;22.10;99.90;;;;;;4996329;28;20453;-64
2021/08/23 09:23:10;;;;;;;4.87;4.07;;;22.30;99.90;;;;;;4995951;28;20942;-64
2021/08/23 09:25:38;;;;;;;8.10;3.70;;;22.50;99.90;;;;;;4996262;28;20453;-65
2021/08/23 09:28:07;;;;;;;3.60;3.30;;;22.70;99.90;;;;;;4996079;28;20529;-64
2021/08/23 09:30:34;;;;;;;4.10;3.70;;;22.90;99.90;;;;;;4996225;28;20485;-64
2021/08/23 09:33:02;;;;;;;3.53;3.23;;;22.90;99.90;;;;;;4995733;28;20461;-64
2021/08/23 09:35:30;;;;;;;5.77;3.57;;;23.00;99.90;;;;;;4995360;28;20481;-64
2021/08/23 09:37:58;;;;;;;3.87;3.50;;;23.20;99.90;;;;;;4996247;28;20508;-63
2021/08/23 09:40:27;;;;;;;4.20;3.90;;;23.20;99.90;;;;;;4995423;28;20458;-61
2021/08/23 09:42:59;;;;;;;4.20;3.87;;;23.20;99.90;;;;;;5004967;28;20458;-62
2021/08/23 09:45:26;;;;;;;3.87;3.50;;;23.30;99.90;;;;;;5010251;28;20947;-64
2021/08/23 09:47:59;;;;;;;3.80;3.50;;;23.40;99.90;;;;;;4996327;28;20450;-63
2021/08/23 09:50:26;;;;;;;4.57;3.90;;;23.60;99.90;;;;;;4995888;28;20512;-64
2021/08/23 09:52:53;;;;;;;3.77;3.20;;;23.90;99.90;;;;;;4995542;28;20817;-63
2021/08/23 09:55:20;;;;;;;3.73;3.43;;;23.90;99.90;;;;;;4995555;28;20481;-62
2021/08/23 09:57:47;;;;;;;4.57;3.03;;;23.90;99.90;;;;;;4995465;28;20458;-62
2021/08/23 10:00:15;;;;;;;3.77;3.40;;;23.80;99.90;;;;;;4995119;28;20469;-62
2021/08/23 10:02:45;;;;;;;4.03;3.63;;;23.40;99.90;;;;;;4995463;28;20449;-62
2021/08/23 10:05:15;;;;;;;3.33;3.03;;;23.30;99.90;;;;;;4995449;28;20461;-62
2021/08/23 10:07:42;;;;;;;5.50;3.47;;;23.10;99.90;;;;;;4995227;28;20845;-62
2021/08/23 10:10:10;;;;;;;4.57;4.20;;;22.80;99.90;;;;;;4995593;28;20458;-62
2021/08/23 10:12:37;;;;;;;3.40;3.10;;;22.60;99.90;;;;;;4995613;28;20473;-62
2021/08/23 10:15:05;;;;;;;3.03;2.83;;;22.40;99.90;;;;;;4995428;28;20457;-62
2021/08/23 10:17:36;;;;;;;4.13;3.23;;;22.40;99.90;;;;;;4994761;28;20848;-64
2021/08/23 10:20:04;;;;;;;4.00;3.60;;;22.40;99.90;;;;;;4995256;28;20529;-64
2021/08/23 10:22:33;;;;;;;3.27;2.80;;;22.20;99.90;;;;;;4995163;28;20474;-64
2021/08/23 10:25:00;;;;;;;2.67;2.57;;;22.10;99.90;;;;;;4994860;28;20940;-63
2021/08/23 10:27:27;;;;;;;3.13;2.93;;;22.10;99.90;;;;;;4994800;28;20457;-62
2021/08/23 10:29:53;;;;;;;3.30;3.00;;;22.20;99.90;;;;;;4994586;28;20461;-61
2021/08/23 10:32:20;;;;;;;3.07;2.77;;;22.40;99.90;;;;;;4994697;28;20478;-63
2021/08/23 10:34:48;;;;;;;5.43;3.03;;;22.60;99.90;;;;;;4994330;28;20534;-64
2021/08/23 10:37:25;;;;;;;3.47;3.00;;;22.70;99.90;;;;;;4994748;28;20478;-64
2021/08/23 10:40:02;;;;;;;2.83;2.70;;;22.60;99.90;;;;;;4994704;28;20905;-63
2021/08/23 10:42:38;;;;;;;3.13;2.93;;;22.60;99.90;;;;;;4994504;28;20473;-63
2021/08/23 10:45:10;;;;;;;3.00;2.80;;;22.40;99.90;;;;;;4994760;28;20850;-64
2021/08/23 10:47:37;;;;;;;3.43;3.10;;;22.40;99.90;;;;;;4994801;28;20446;-64
2021/08/23 10:50:07;;;;;;;3.40;3.10;;;22.40;99.90;;;;;;4995184;28;20458;-64
2021/08/23 10:52:36;;;;;;;2.90;2.70;;;22.40;99.90;;;;;;4995033;28;20476;-64
2021/08/23 10:55:06;;;;;;;3.10;2.90;;;22.50;99.90;;;;;;4994922;28;20509;-64
2021/08/23 10:57:33;;;;;;;2.90;2.70;;;22.60;99.90;;;;;;4994869;28;20462;-62
2021/08/23 11:00:09;;;;;;;2.27;2.10;;;22.60;99.90;;;;;;4994788;28;20949;-62
2021/08/23 11:02:38;;;;;;;2.73;2.63;;;22.60;99.90;;;;;;4994850;28;20496;-62
2021/08/23 11:05:09;;;;;;;2.17;2.07;;;22.60;99.90;;;;;;4994635;28;20945;-62
2021/08/23 11:07:38;;;;;;;2.67;2.50;;;22.60;99.90;;;;;;4995479;28;20470;-62
2021/08/23 11:10:08;;;;;;;2.10;2.00;;;22.70;99.90;;;;;;4994542;28;20838;-62
2021/08/23 11:12:45;;;;;;;2.80;2.60;;;22.50;99.90;;;;;;4994969;28;20473;-62
2021/08/23 11:15:19;;;;;;;2.43;2.33;;;22.50;99.90;;;;;;4995215;28;20434;-62
2021/08/23 11:17:48;;;;;;;2.90;2.60;;;22.60;99.90;;;;;;4994755;28;20461;-62
2021/08/23 11:20:20;;;;;;;2.63;2.53;;;22.60;99.90;;;;;;4994704;28;20463;-63
2021/08/23 11:22:53;;;;;;;2.40;2.30;;;22.70;99.90;;;;;;4994568;28;20928;-62
2021/08/23 11:25:27;;;;;;;2.63;2.37;;;22.90;99.90;;;;;;4994874;28;20457;-62
2021/08/23 11:27:54;;;;;;;2.60;2.40;;;23.00;99.90;;;;;;4994874;28;20490;-62
2021/08/23 11:30:28;;;;;;;2.90;2.63;;;23.00;99.90;;;;;;4994576;28;20461;-63
2021/08/23 11:32:55;;;;;;;2.77;2.40;;;23.00;99.90;;;;;;4994419;28;20978;-63
2021/08/23 11:35:23;;;;;;;2.70;2.53;;;22.80;99.90;;;;;;4994736;28;20464;-63
2021/08/23 11:37:55;;;;;;;2.93;2.70;;;23.20;99.90;;;;;;4994822;28;20473;-63
2021/08/23 11:40:22;;;;;;;3.13;2.93;;;23.90;99.90;;;;;;4994782;28;20449;-63
2021/08/23 11:42:53;;;;;;;2.60;2.40;;;24.70;99.90;;;;;;4997097;28;20458;-63
2021/08/23 11:45:21;;;;;;;3.10;2.80;;;25.20;99.90;;;;;;4998393;28;20442;-63
2021/08/23 11:47:50;;;;;;;2.90;2.70;;;25.00;99.90;;;;;;4998149;28;20921;-63
2021/08/23 11:50:19;;;;;;;3.50;2.37;;;25.30;99.90;;;;;;4997934;28;20508;-63
2021/08/23 11:52:47;;;;;;;2.70;2.50;;;25.40;99.90;;;;;;4998250;28;20458;-63
2021/08/23 11:55:25;;;;;;;2.67;2.33;;;25.60;99.90;;;;;;4997847;28;20450;-63
2021/08/23 11:57:59;;;;;;;2.10;2.00;;;25.50;99.90;;;;;;4998103;28;20520;-63
2021/08/23 12:00:26;;;;;;;2.47;2.27;;;25.50;99.90;;;;;;4997265;28;20453;-63
2021/08/23 12:03:03;;;;;;;2.20;2.10;;;25.70;99.90;;;;;;4997863;28;20804;-63
2021/08/23 12:05:34;;;;;;;2.50;2.40;;;25.50;99.90;;;;;;4997640;28;20500;-63
2021/08/23 12:08:02;;;;;;;2.23;2.10;;;25.50;99.90;;;;;;4997827;28;20790;-63
2021/08/23 12:10:30;;;;;;;2.03;1.93;;;25.30;99.90;;;;;;4997617;28;20461;-64
2021/08/23 12:13:08;;;;;;;2.43;2.30;;;25.40;99.90;;;;;;4997903;28;20454;-64
2021/08/23 12:15:36;;;;;;;4.27;2.27;;;25.30;99.90;;;;;;4997504;28;20453;-64
2021/08/23 12:18:11;;;;;;;2.23;2.13;;;25.20;99.90;;;;;;4997561;28;20477;-63
2021/08/23 12:20:38;;;;;;;2.37;2.17;;;25.50;99.90;;;;;;4997527;28;20484;-63
2021/08/23 12:23:06;;;;;;;2.07;1.97;;;25.70;99.90;;;;;;4997297;28;20829;-63
2021/08/23 12:25:33;;;;;;;2.13;2.03;;;25.70;99.90;;;;;;4997219;28;20524;-63
2021/08/23 12:28:00;;;;;;;3.10;2.90;;;25.70;99.90;;;;;;4996929;28;20462;-63
2021/08/23 12:30:32;;;;;;;2.77;2.67;;;25.50;99.90;;;;;;4997339;28;20508;-64
2021/08/23 12:32:59;;;;;;;3.57;2.50;;;25.40;99.90;;;;;;4997564;28;20457;-63
2021/08/23 12:35:29;;;;;;;2.73;2.53;;;25.60;99.90;;;;;;5000738;28;20875;-63
2021/08/23 12:37:55;;;;;;;2.50;2.40;;;25.40;99.90;;;;;;4997421;28;20509;-64
2021/08/23 12:40:23;;;;;;;3.50;3.20;;;25.40;99.90;;;;;;4997412;28;20799;-64
2021/08/23 12:42:55;;;;;;;2.60;2.47;;;25.40;99.90;;;;;;4997206;28;20457;-64
2021/08/23 12:45:22;;;;;;;2.37;2.20;;;25.30;99.90;;;;;;4997165;28;20454;-64
2021/08/23 12:47:49;;;;;;;2.13;2.03;;;25.10;99.90;;;;;;4997101;28;20454;-63
2021/08/23 12:50:15;;;;;;;2.90;2.70;;;25.00;99.90;;;;;;4996688;28;20461;-65
2021/08/23 12:52:42;;;;;;;2.33;2.23;;;24.90;99.90;;;;;;4996388;28;20454;-64
2021/08/23 12:55:09;;;;;;;2.50;2.40;;;25.00;99.90;;;;;;4996808;28;20454;-62
2021/08/23 12:57:37;;;;;;;3.60;3.30;;;25.20;99.90;;;;;;4996597;28;20482;-63
2021/08/23 13:00:07;;;;;;;2.80;2.60;;;25.20;99.90;;;;;;4996803;28;20458;-63
2021/08/23 13:02:34;;;;;;;3.10;2.90;;;25.30;99.90;;;;;;4996582;28;20517;-64
2021/08/23 13:05:01;;;;;;;3.63;3.33;;;25.40;99.90;;;;;;4997093;28;20457;-63
2021/08/23 13:07:27;;;;;;;2.90;2.70;;;25.50;99.90;;;;;;4996429;28;20781;-64
2021/08/23 13:09:54;;;;;;;2.83;2.63;;;25.50;99.90;;;;;;4996449;28;20862;-63
2021/08/23 13:12:21;;;;;;;2.90;2.70;;;25.50;99.90;;;;;;4996615;28;20481;-62
2021/08/23 13:14:49;;;;;;;2.60;2.50;;;25.70;99.90;;;;;;4996316;28;20508;-63
2021/08/23 13:17:16;;;;;;;4.60;2.77;;;25.80;99.90;;;;;;4996139;28;20480;-63
2021/08/23 13:19:42;;;;;;;4.47;3.10;;;26.00;99.90;;;;;;4996394;28;20454;-64
2021/08/23 13:22:09;;;;;;;3.53;2.70;;;26.20;99.90;;;;;;4995871;28;20478;-63
2021/08/23 13:24:37;;;;;;;2.63;2.50;;;26.30;99.90;;;;;;4996288;28;20458;-63
2021/08/23 13:27:05;;;;;;;2.40;2.30;;;26.50;99.90;;;;;;4996069;28;20450;-63
2021/08/23 13:29:31;;;;;;;3.07;2.60;;;26.70;99.90;;;;;;4996123;28;20516;-63
2021/08/23 13:31:59;;;;;;;2.63;2.43;;;26.30;99.90;;;;;;4996197;28;20474;-63
2021/08/23 13:34:26;;;;;;;3.20;3.00;;;26.50;99.90;;;;;;4995646;28;20949;-63
2021/08/23 13:36:53;;;;;;;3.10;2.80;;;26.10;99.90;;;;;;4995788;28;21011;-64
2021/08/23 13:39:20;;;;;;;2.97;2.80;;;25.90;99.90;;;;;;4995714;28;20454;-64
2021/08/23 13:41:48;;;;;;;2.83;2.63;;;25.80;99.90;;;;;;4995217;28;20489;-63
2021/08/23 13:44:15;;;;;;;3.23;2.93;;;26.10;99.90;;;;;;4995937;28;20564;-63
2021/08/23 13:46:41;;;;;;;2.93;2.60;;;26.10;99.90;;;;;;4995651;28;20937;-63
2021/08/23 13:49:09;;;;;;;3.03;2.83;;;26.20;99.90;;;;;;4996261;28;20457;-63
2021/08/23 13:51:36;;;;;;;2.63;2.53;;;26.20;99.90;;;;;;4995722;28;20985;-63
2021/08/23 13:54:03;;;;;;;2.80;2.70;;;26.30;99.90;;;;;;4995713;28;20442;-63
2021/08/23 13:56:29;;;;;;;2.73;2.40;;;26.30;99.90;;;;;;4996152;28;20461;-64
2021/08/23 13:58:57;;;;;;;3.00;2.90;;;26.10;99.90;;;;;;4995340;28;20821;-64
2021/08/23 14:01:24;;;;;;;3.33;3.17;;;25.70;99.90;;;;;;4995360;28;20486;-63
2021/08/23 14:03:51;;;;;;;3.13;3.03;;;25.40;99.90;;;;;;4995340;28;20458;-63
2021/08/23 14:06:20;;;;;;;2.70;2.60;;;25.50;99.90;;;;;;4995297;28;20453;-63
2021/08/23 14:08:47;;;;;;;2.97;2.87;;;25.70;99.90;;;;;;4994974;28;20816;-63
2021/08/23 14:11:14;;;;;;;4.13;3.07;;;26.00;99.90;;;;;;4995288;28;20481;-63
2021/08/23 14:13:41;;;;;;;2.90;2.70;;;26.20;99.90;;;;;;4994886;28;20458;-63
2021/08/23 14:16:07;;;;;;;3.70;3.40;;;26.10;99.90;;;;;;4995033;28;20449;-63
2021/08/23 14:18:34;;;;;;;3.20;2.90;;;25.90;99.90;;;;;;4994870;28;20882;-63
2021/08/23 14:21:02;;;;;;;3.60;3.40;;;26.00;99.90;;;;;;4995232;28;20481;-63
2021/08/23 14:23:30;;;;;;;3.10;2.90;;;26.20;99.90;;;;;;4995216;28;20477;-63
2021/08/23 14:25:57;;;;;;;3.27;3.07;;;26.20;99.90;;;;;;4995133;28;20453;-63
2021/08/23 14:28:24;;;;;;;3.03;2.70;;;26.10;99.90;;;;;;4995096;28;20450;-63
2021/08/23 14:30:50;;;;;;;3.10;2.90;;;25.80;99.90;;;;;;4994691;28;20476;-63
2021/08/23 14:33:17;;;;;;;2.97;2.70;;;25.60;99.90;;;;;;4994980;28;20454;-63
2021/08/23 14:35:44;;;;;;;3.03;2.83;;;25.10;99.90;;;;;;4995769;28;20458;-61
2021/08/23 14:38:10;;;;;;;3.03;2.73;;;24.60;99.90;;;;;;4995520;28;20474;-61
2021/08/23 14:40:39;;;;;;;3.97;3.47;;;24.60;99.90;;;;;;4995518;28;20480;-63
2021/08/23 14:43:06;;;;;;;3.03;2.83;;;24.70;99.90;;;;;;4995023;28;20460;-64
2021/08/23 14:45:33;;;;;;;3.00;2.80;;;24.70;99.90;;;;;;4994969;28;20458;-63
2021/08/23 14:48:00;;;;;;;3.20;3.00;;;24.70;99.90;;;;;;4994948;28;20457;-63
2021/08/23 14:50:26;;;;;;;3.47;3.17;;;24.70;99.90;;;;;;4994717;28;20465;-64
2021/08/23 14:52:53;;;;;;;3.47;3.27;;;24.70;99.90;;;;;;4994987;28;20460;-63
2021/08/23 14:55:20;;;;;;;3.53;3.33;;;24.90;99.90;;;;;;4994643;28;20972;-65
2021/08/23 14:57:48;;;;;;;4.53;3.50;;;24.60;99.90;;;;;;4994796;28;20482;-65
2021/08/23 15:00:15;;;;;;;3.93;3.73;;;24.30;99.90;;;;;;4994826;28;20457;-65
2021/08/23 15:02:48;;;;;;;3.43;3.20;;;24.00;99.90;;;;;;4994721;28;20449;-65
2021/08/23 15:05:15;;;;;;;3.00;2.87;;;24.00;99.90;;;;;;4994909;28;20442;-66
2021/08/23 15:07:41;;;;;;;3.23;3.00;;;23.50;99.90;;;;;;4994392;28;20460;-65
2021/08/23 15:10:09;;;;;;;3.30;3.00;;;23.40;99.90;;;;;;4994825;28;20457;-66
2021/08/23 15:12:35;;;;;;;4.40;4.20;;;23.50;99.90;;;;;;4994945;28;20548;-65
2021/08/23 15:15:04;;;;;;;3.47;3.17;;;23.40;99.90;;;;;;4994999;28;20464;-65
2021/08/23 15:17:31;;;;;;;3.03;2.90;;;23.40;99.90;;;;;;4998186;28;20489;-65
2021/08/23 15:19:58;;;;;;;2.97;2.77;;;23.40;99.90;;;;;;4998556;28;20450;-65
2021/08/23 15:22:25;;;;;;;3.33;3.07;;;23.40;99.90;;;;;;4998271;28;21004;-65
2021/08/23 15:24:52;;;;;;;3.57;3.33;;;23.60;99.90;;;;;;4998979;28;20493;-65
2021/08/23 15:27:18;;;;;;;3.40;3.20;;;23.70;99.90;;;;;;4998711;28;20456;-66
2021/08/23 15:29:46;;;;;;;4.63;3.50;;;23.70;99.90;;;;;;4998578;28;20456;-66
2021/08/23 15:32:14;;;;;;;3.53;3.33;;;23.90;99.90;;;;;;5001101;28;20473;-66
2021/08/23 15:34:41;;;;;;;4.00;3.77;;;23.90;99.90;;;;;;5011099;28;20460;-66
2021/08/23 15:37:08;;;;;;;3.93;3.73;;;24.00;99.90;;;;;;4999732;28;20482;-64
2021/08/23 15:39:34;;;;;;;11.03;4.67;;;24.00;99.90;;;;;;4998919;28;20453;-66
2021/08/23 15:42:01;;;;;;;6.17;5.40;;;23.70;99.90;;;;;;4998432;28;20478;-65
2021/08/23 15:44:28;;;;;;;5.63;5.23;;;23.50;99.90;;;;;;4998168;28;20838;-66
2021/08/23 15:46:54;;;;;;;6.83;6.30;;;23.20;99.90;;;;;;4998349;28;20457;-65
2021/08/23 15:49:23;;;;;;;7.90;6.80;;;22.80;99.90;;;;;;4998229;28;20483;-65
2021/08/23 15:51:50;;;;;;;8.03;7.30;;;22.50;99.90;;;;;;4998187;28;20988;-65
2021/08/23 15:54:16;;;;;;;8.13;7.53;;;22.30;99.90;;;;;;4998094;28;20460;-66
2021/08/23 15:56:43;;;;;;;8.07;7.27;;;22.00;99.90;;;;;;4997110;28;20548;-65
2021/08/23 15:59:10;;;;;;;8.50;7.90;;;21.90;99.90;;;;;;4997406;28;20984;-65
2021/08/23 16:01:37;;;;;;;8.30;7.50;;;21.80;99.90;;;;;;4997564;28;20485;-66
2021/08/23 16:04:04;;;;;;;7.80;7.20;;;21.80;99.90;;;;;;4997450;28;20465;-65
2021/08/23 16:06:32;;;;;;;9.00;8.40;;;21.80;99.90;;;;;;4997941;28;20512;-65
2021/08/23 16:08:59;;;;;;;8.00;7.50;;;21.80;99.90;;;;;;4998041;28;20454;-65
2021/08/23 16:11:25;;;;;;;8.10;7.50;;;21.70;99.90;;;;;;4997983;28;20477;-65
2021/08/23 16:13:52;;;;;;;8.60;7.97;;;21.80;99.90;;;;;;4997643;28;20462;-65
2021/08/23 16:16:19;;;;;;;9.37;8.57;;;21.70;99.90;;;;;;4998077;28;20461;-65
2021/08/23 16:18:45;;;;;;;9.10;8.40;;;21.70;99.90;;;;;;4997500;28;20810;-65
2021/08/23 16:21:12;;;;;;;8.10;7.50;;;21.70;99.90;;;;;;4997354;28;20481;-65
2021/08/23 16:23:43;;;;;;;9.63;8.87;;;21.70;99.90;;;;;;4997370;28;20453;-66
2021/08/23 16:26:10;;;;;;;9.03;8.13;;;21.70;99.90;;;;;;4997325;28;20799;-65
2021/08/23 16:28:36;;;;;;;9.23;8.53;;;21.70;99.90;;;;;;4996824;28;20450;-65
2021/08/23 16:31:03;;;;;;;8.40;7.70;;;21.80;99.90;;;;;;4997119;28;20544;-65
2021/08/23 16:33:31;;;;;;;9.50;8.90;;;21.80;99.90;;;;;;4997069;28;20461;-65
2021/08/23 16:35:58;;;;;;;8.47;7.80;;;21.70;99.90;;;;;;4997460;28;20511;-65
2021/08/23 16:38:25;;;;;;;9.53;8.83;;;21.80;99.90;;;;;;4997002;28;20517;-65
2021/08/23 16:40:53;;;;;;;9.80;9.13;;;21.80;99.90;;;;;;4996785;28;20873;-65
2021/08/23 16:43:19;;;;;;;9.70;8.80;;;21.70;99.90;;;;;;4997059;28;20449;-65
2021/08/23 16:45:46;;;;;;;10.40;9.10;;;21.70;99.90;;;;;;4997103;28;20458;-65
2021/08/23 16:48:13;;;;;;;10.30;9.57;;;21.70;99.90;;;;;;4996513;28;20509;-65